Flight Track Log - Related Links

Times and Time Zones

All times are in EDT time to prevent confusion due to time zone crossing. See the DAL493 flight status page for this flight to view local times or setup timezone preferences in your user account.

Time Position Orientation Groundspeed Altitude Reporting Facility
EDT Latitude Longitude Course Direction KTS MPH feet Rate Location/Type
Sat 09:16:55 AM 40.6333 -73.8500 207° Southwest 183 211 2,000  Level New York TRACON
Sat 09:17:55 AM 40.5833 -73.8833 118° Southeast 262 302 3,300 1,800 Climbing New York TRACON
Sat 09:18:55 AM 40.5500 -73.8000 112° Southeast 290 334 5,600 2,318 Climbing New York TRACON
Sat 09:20:51 AM 40.4919 -73.6147 108° East 313 360 10,100 1,932 Climbing New York Center
Sat 09:21:52 AM 40.4578 -73.4797 108° East 336 387 11,300 1,339 Climbing New York Center
Sat 09:22:52 AM 40.4272 -73.3556 137° Southeast 381 438 12,800 1,686 Climbing New York Center
Sat 09:23:53 AM 40.3317 -73.2378 129° Southeast 408 470 14,700 1,820 Climbing New York Center
Sat 09:24:54 AM 40.2592 -73.1208 128° Southeast 439 505 16,500 1,765 Climbing New York Center
Sat 09:25:52 AM 40.1786 -72.9850 128° Southeast 463 533 18,200 1,831 Climbing New York Center
Sat 09:26:52 AM 40.0936 -72.8411 128° Southeast 481 554 20,100 1,850 Climbing New York Center
Sat 09:27:52 AM 40.0086 -72.7006 130° Southeast 487 560 21,900 1,587 Climbing New York Center
Sat 09:28:53 AM 39.9169 -72.5600 169° South 500 575 23,300 1,240 Climbing New York Center
Sat 09:29:53 AM 39.7861 -72.5267 178° South 460 529 24,400 1,100 Climbing New York Center
Sat 09:34:53 AM 39.1194 -72.5019 176° South 470 541 29,900 1,064 Climbing New York Center
Sat 09:35:54 AM 38.9883 -72.4908 180° South 470 541 30,800 1,119 Climbing New York Center
Sat 09:36:51 AM 38.8589 -72.4903 177° South 470 541 32,100 1,333 Climbing New York Center
Sat 09:37:51 AM 38.7297 -72.4819 179° South 470 541 33,400 1,190 Climbing New York Center
Sat 09:38:52 AM 38.6028 -72.4786 178° South 470 541 34,500 738 Climbing New York Center
Sat 09:39:53 AM 38.4756 -72.4731 177° South 465 535 34,900 250 Climbing New York Center
Sat 09:40:52 AM 38.3483 -72.4647 179° South 460 529 35,000 50 Climbing New York Center
Sat 09:41:52 AM 38.2214 -72.4617 176° South 460 529 35,000 -50 Level New York Center
Sat 09:42:52 AM 38.0942 -72.4508 182° South 460 529 34,900  Descending New York Center
Sat 09:43:52 AM 37.9689 -72.4558 175° South 460 529 35,000 50 Climbing New York Center
Sat 09:44:52 AM 37.8356 -72.4422 181° South 460 529 35,000  Level New York Center
Sat 09:45:53 AM 37.7064 -72.4444 176° South 459 528 35,000  Level New York Center
Sat 09:46:52 AM 37.5897 -72.4339 178° South 445 512 35,000  Level New York Center
Sat 09:47:53 AM 37.4644 -72.4283 178° South 438 504 35,000 -50 Level New York Center
Sat 09:48:53 AM 37.3417 -72.4231 178° South 443 510 34,900 -51 Descending New York Center
Sat 09:49:51 AM 37.2247 -72.4178 178° South 438 504 34,900 50 Level New York Center
Sat 09:50:52 AM 37.1039 -72.4125 178° South 438 504 35,000 49 Climbing New York Center
Sat 09:51:53 AM 36.9808 -72.4072 177° South 438 504 35,000  Level New York Center
Sat 09:52:53 AM 36.8558 -72.3992 179° South 438 504 35,000  Level New York Center
Sat 09:53:52 AM 36.7350 -72.3964 180° South 443 510 35,000  Level New York Center
Sat 09:54:53 AM 36.6139 -72.3964 181° South 441 507 35,000 397 Level New York Center
Sat 09:55:53 AM 36.4928 -72.3989 180° South 441 507 35,800 694 Climbing New York Center
Sat 09:56:54 AM 36.3761 -72.3989 181° South 436 502 36,400 559 Climbing New York Center
Sat 09:57:51 AM 36.2550 -72.4017 180° South 430 495 36,900 254 Climbing New York Center
Sat 09:58:52 AM 36.1339 -72.4014 181° South 430 495 36,900  Level New York Center
Sat 09:59:52 AM 36.0086 -72.4039 181° South 441 507 36,900  Level New York Center
Sat 10:00:53 AM 35.8878 -72.4064 180° South 441 507 36,900 50 Level New York Center
Sat 10:01:53 AM 35.7667 -72.4064 181° South 441 507 37,000 51 Climbing New York Center
Sat 10:02:51 AM 35.6436 -72.4089 180° South 442 509 37,000  Level New York Center
Sat 10:03:52 AM 35.5206 -72.4089 180° South 442 509 37,000 -50 Level New York Center
Sat 10:04:52 AM 35.3994 -72.4089 180° South 442 509 36,900  Descending New York Center
Sat 10:05:53 AM 35.2806 -72.4089 179° South 442 509 37,000 50 Climbing New York Center
Sat 10:06:51 AM 35.1617 -72.4061 183° South 435 501 37,000  Level New York Center
Sat 10:07:51 AM 35.0303 -72.4136 174° South 440 506 37,000  Level New York Center
Sat 10:08:52 AM 34.9072 -72.3983 175° South 446 513 37,000 -49 Level New York Center
Sat 10:09:53 AM 34.7803 -72.3856 175° South 446 513 36,900  Descending New York Center
Sat 10:10:51 AM 34.6575 -72.3728 355° North 451 519 37,000 64 Climbing New York Center
Sat 10:11:27 AM 35.0500 -72.4167 174° South 478 550 37,000  Level New York Oceanic (ODAPS)
Sat 10:12:52 AM 34.4283 -72.3406 176° South 439 505 37,000  Level New York Center
Sat 10:17:35 AM 33.9833 -72.3000 167° South 467 537 37,000  Level New York Oceanic (ODAPS)
Sat 11:00:04 AM 28.9000 -70.9833 168° South 461 531 37,000  Level New York Oceanic (ODAPS)
Sat 11:31:39 AM 24.7808 -70.0297 191° South 460 529 37,000  Level Miami Center
Sat 11:32:39 AM 24.6631 -70.0547 190° South 443 510 37,000  Level Miami Center
Sat 11:33:39 AM 24.5472 -70.0769 191° South 428 493 37,000  Level Miami Center
Sat 11:34:39 AM 24.4317 -70.1014 187° South 434 499 37,000  Level Miami Center
Sat 11:35:39 AM 24.3133 -70.1172 192° South 434 499 37,000  Level Miami Center
Sat 11:36:39 AM 24.1978 -70.1439 188° South 429 494 37,000  Level Miami Center
Sat 11:37:39 AM 24.0817 -70.1614 188° South 424 488 37,000  Level Miami Center
Sat 11:38:39 AM 23.9614 -70.1792 190° South 424 488 37,000  Level Miami Center
Sat 11:39:39 AM 23.8456 -70.2011 188° South 424 488 37,000  Level Miami Center
Sat 11:40:39 AM 23.7253 -70.2189 190° South 429 494 37,000  Level Miami Center
Sat 11:41:39 AM 23.6117 -70.2406 190° South 429 494 37,000  Level Miami Center
Sat 11:42:39 AM 23.4956 -70.2625 189° South 424 488 37,000  Level Miami Center
Sat 11:43:39 AM 23.3775 -70.2822 191° South 424 488 37,000  Level Miami Center
Sat 11:44:39 AM 23.2619 -70.3061 188° South 424 488 37,000  Level Miami Center
Sat 11:45:39 AM 23.1458 -70.3233 192° South 424 488 37,000  Level Miami Center
Sat 11:46:39 AM 23.0300 -70.3497 188° South 429 494 37,000  Level Miami Center
Sat 11:47:39 AM 22.9097 -70.3669 191° South 429 494 37,000  Level Miami Center
Sat 11:48:39 AM 22.7939 -70.3906 189° South 429 494 37,000  Level Miami Center
Sat 11:49:39 AM 22.6758 -70.4100 188° South 429 494 37,000  Level Miami Center
Sat 11:50:39 AM 22.5556 -70.4272 191° South 429 494 37,000  Level Miami Center
Sat 11:51:39 AM 22.4397 -70.4508 189° South 429 494 37,000  Level Miami Center
Sat 11:52:39 AM 22.3239 -70.4700 190° South 429 494 37,000  Level Miami Center
Sat 11:53:39 AM 22.2058 -70.4914 190° South 429 494 37,000  Level Miami Center
Sat 11:54:39 AM 22.0878 -70.5128 189° South 429 494 37,000  Level Miami Center
Sat 11:55:39 AM 21.9719 -70.5317 188° South 424 488 37,000  Level Miami Center
Sat 11:56:39 AM 21.8517 -70.5508 190° South 424 488 37,000  Level Miami Center
Sat 11:57:39 AM 21.7358 -70.5719 188° South 424 488 37,000  Level Miami Center
Sat 11:58:39 AM 21.6322 -70.5881 189° South 424 488 37,000  Level Miami Center
Sat 11:59:39 AM 21.5142 -70.6092 189° South 424 488 37,000  Level Miami Center
Sat 12:00:39 PM 21.3942 -70.6303 188° South 431 496 37,000  Level Miami Center
Sat 12:01:39 PM 21.2761 -70.6492 169° South 431 496 37,000  Level Miami Center
Sat 12:02:39 PM 21.1542 -70.6236 161° South 431 496 37,000  Level Miami Center
Sat 12:03:39 PM 21.0336 -70.5803 161° South 436 502 37,000 -200 Level Miami Center
Sat 12:04:39 PM 20.9128 -70.5369 163° South 445 512 36,600 -700 Descending Miami Center
Sat 12:05:39 PM 20.7947 -70.4983 161° South 450 518 35,600 -800 Descending Miami Center
Sat 12:06:39 PM 20.6739 -70.4550 161° South 450 518 35,000 -300 Descending Miami Center
Sat 12:07:39 PM 20.5514 -70.4100 161° South 455 524 35,000 -250 Level Miami Center
Sat 12:08:39 PM 20.4328 -70.3669 161° South 455 524 34,500 -500 Descending Miami Center
Sat 12:16:15 PM 19.5872 -70.0558 162° South  Level FlightAware Approximate
Sat 12:17:15 PM 19.4746 -70.0170 162° South  Level FlightAware Approximate
Sat 12:18:15 PM 19.3620 -69.9783 162° South  Level FlightAware Approximate
Sat 12:19:15 PM 19.2494 -69.9396 162° South  Level FlightAware Approximate
Sat 12:20:15 PM 19.1368 -69.9011 162° South  Level FlightAware Approximate
Sat 12:21:15 PM 19.0240 -69.8631 162° South  Level FlightAware Approximate
Sat 12:22:15 PM 18.9114 -69.8244 158° South  Level FlightAware Approximate
Sat 12:23:15 PM 18.8015 -69.7783 163° South  Level FlightAware Approximate
Sat 12:24:15 PM 18.6880 -69.7425 166° South  Level FlightAware Approximate
Sat 12:25:15 PM 18.5744 -69.7131 159° South  Level FlightAware Approximate
Sat 12:26:15 PM 18.4638 -69.6688 180° South  Level FlightAware Approximate
Sat 12:27:15 PM 18.3454 -69.6692 360° North  Level Estimated
Sat 12:28:15 PM 18.4638 -69.6688 180° South  Level Estimated
Sat 12:29:15 PM 18.3454 -69.6692 360° North  Level Estimated
Sat 12:30:15 PM 18.4638 -69.6688 180° South  Level Estimated
Sat 12:31:15 PM 18.3454 -69.6692 14° North  Level Estimated
Sat 12:32:15 PM 18.4167 -69.6500 306° West  Level FlightAware Approximate
Sat 12:33:15 PM 18.4860 -69.7511 126° Southeast  Level Estimated
Sat 12:34:15 PM 18.4167 -69.6500 126° Southeast  Level FlightAware Approximate

Login

Don't have an account? Register now (free) for customized features, flight alerts, and more!